Time;durP1;ratioP1;P1;durP2;ratioP2;P2;SDS_P1;SDS_P2;PMS_P1;PMS_P2;Temp;Humidity;BMP_temperature;BMP_pressure;BME280_temperature;BME280_humidity;BME280_pressure;Samples;Min_cycle;Max_cycle;Signal;HPM_P1;HPM_P2
2022/03/26 00:00:00;;;;;;;8.13;4.07;;;;;;;9.25;51.60;100021.22;5137609;27;20181;-92
2022/03/26 00:02:26;;;;;;;7.90;3.80;;;;;;;9.27;51.60;100016.81;5137512;27;20233;-91
2022/03/26 00:04:53;;;;;;;11.10;4.10;;;;;;;9.34;51.80;100027.03;5119436;27;20220;-91
2022/03/26 00:07:18;;;;;;;12.13;5.23;;;;;;;9.43;50.91;100026.75;5119558;27;20195;-92
2022/03/26 00:09:44;;;;;;;19.13;3.30;;;;;;;9.30;51.21;100022.84;5137770;27;20638;-92
2022/03/26 00:12:09;;;;;;;11.30;4.67;;;;;;;9.28;51.73;100031.59;5137286;27;20661;-92
2022/03/26 00:14:35;;;;;;;8.20;4.87;;;;;;;9.31;51.20;100028.00;5136771;27;20642;-92
2022/03/26 00:17:00;;;;;;;9.67;4.57;;;;;;;9.28;51.19;100036.81;5119554;27;20263;-92
2022/03/26 00:19:27;;;;;;;9.57;4.03;;;;;;;9.22;51.21;100037.00;5119311;27;20628;-92
2022/03/26 00:21:52;;;;;;;9.17;4.53;;;;;;;9.22;51.40;100036.19;5137168;27;20240;-92
2022/03/26 00:24:18;;;;;;;11.97;3.90;;;;;;;9.29;51.26;100037.69;5137122;27;20178;-92
2022/03/26 00:26:43;;;;;;;9.10;4.53;;;;;;;9.30;50.81;100038.53;5137281;27;20646;-92
2022/03/26 00:29:09;;;;;;;14.23;5.23;;;;;;;9.17;51.13;100028.47;5136185;27;20251;-92
2022/03/26 00:31:37;;;;;;;10.40;4.10;;;;;;;9.21;50.88;100032.69;5137233;27;20541;-93
2022/03/26 00:34:03;;;;;;;11.60;3.70;;;;;;;9.29;50.43;100037.69;5137339;27;20295;-92
2022/03/26 00:36:28;;;;;;;8.47;3.83;;;;;;;9.31;50.41;100038.47;5137539;27;20697;-91
2022/03/26 00:38:54;;;;;;;9.40;4.03;;;;;;;9.13;50.45;100037.31;5136821;27;20636;-92
2022/03/26 00:41:19;;;;;;;9.40;4.10;;;;;;;9.00;51.17;100043.00;5118667;27;20314;-92
2022/03/26 00:43:45;;;;;;;8.43;3.73;;;;;;;8.76;51.86;100039.38;5136804;27;20217;-91
2022/03/26 00:46:11;;;;;;;9.47;3.73;;;;;;;8.60;51.38;100044.22;5136888;27;20669;-91
2022/03/26 00:48:36;;;;;;;7.40;3.70;;;;;;;8.42;51.98;100052.59;5136605;27;20171;-92
2022/03/26 00:51:02;;;;;;;7.90;3.33;;;;;;;8.35;50.92;100050.22;5136784;27;20695;-92
2022/03/26 00:53:27;;;;;;;7.47;3.10;;;;;;;8.23;50.42;100050.56;5136521;27;20675;-91
2022/03/26 00:55:53;;;;;;;18.77;5.93;;;;;;;8.26;49.46;100055.66;5136640;27;20178;-90
2022/03/26 00:58:18;;;;;;;8.13;3.87;;;;;;;8.10;50.18;100046.56;5136700;27;20215;-90
2022/03/26 01:00:44;;;;;;;9.23;4.13;;;;;;;8.17;50.00;100058.56;5135418;27;20179;-91
2022/03/26 01:03:10;;;;;;;7.93;3.10;;;;;;;8.20;50.24;100061.06;5136354;27;20285;-91
2022/03/26 01:05:38;;;;;;;11.37;3.87;;;;;;;8.20;50.31;100061.06;5136313;27;20167;-91
2022/03/26 01:08:04;;;;;;;10.30;4.83;;;;;;;8.16;51.33;100065.53;5136341;27;20187;-91
2022/03/26 01:10:30;;;;;;;7.60;4.00;;;;;;;7.96;51.95;100070.44;5118243;27;20179;-91
2022/03/26 01:12:55;;;;;;;8.40;3.70;;;;;;;7.95;51.95;100066.97;5136383;27;20198;-92
2022/03/26 01:15:22;;;;;;;8.37;4.00;;;;;;;8.00;51.98;100066.84;5136097;27;20183;-91
2022/03/26 01:17:48;;;;;;;7.30;3.10;;;;;;;8.06;51.67;100069.28;5136084;27;20179;-91
2022/03/26 01:20:13;;;;;;;7.10;3.50;;;;;;;7.94;51.86;100065.25;5135961;27;20231;-91
2022/03/26 01:22:39;;;;;;;5.03;2.53;;;;;;;7.68;53.08;100067.69;5135019;27;20175;-91
2022/03/26 01:25:05;;;;;;;6.90;2.93;;;;;;;7.54;53.65;100072.44;5117889;27;20182;-92
2022/03/26 01:27:31;;;;;;;6.37;4.43;;;;;;;7.53;54.29;100077.66;5135824;27;20624;-91
2022/03/26 01:29:57;;;;;;;10.97;4.63;;;;;;;7.63;54.30;100074.78;5135027;27;20175;-92
2022/03/26 01:32:23;;;;;;;9.20;4.30;;;;;;;7.61;53.85;100066.16;5134800;27;20231;-91
2022/03/26 01:34:48;;;;;;;11.37;5.63;;;;;;;7.51;53.73;100066.41;5135670;27;20605;-91
2022/03/26 01:37:16;;;;;;;12.80;4.97;;;;;;;7.32;54.45;100071.22;5135634;27;20182;-91
2022/03/26 01:39:42;;;;;;;8.30;3.83;;;;;;;7.25;55.85;100074.91;5134982;27;20202;-91
2022/03/26 01:42:07;;;;;;;9.83;3.47;;;;;;;7.12;56.67;100081.28;5117430;27;20213;-92
2022/03/26 01:44:34;;;;;;;6.87;3.00;;;;;;;7.04;58.18;100083.22;5135789;27;20250;-91
2022/03/26 01:47:00;;;;;;;6.90;3.23;;;;;;;7.03;58.69;100087.56;5135934;27;20182;-91
2022/03/26 01:49:26;;;;;;;4.87;2.93;;;;;;;7.05;58.88;100082.34;5135319;27;20182;-91
2022/03/26 01:51:52;;;;;;;8.70;2.87;;;;;;;6.96;59.79;100092.97;5134405;27;20203;-91
2022/03/26 01:54:19;;;;;;;8.87;3.97;;;;;;;6.82;61.04;100103.69;5135219;27;20647;-90
2022/03/26 01:56:45;;;;;;;6.73;3.17;;;;;;;7.00;60.32;100092.00;5135221;27;20258;-91
2022/03/26 01:59:11;;;;;;;4.43;2.67;;;;;;;7.09;59.75;100091.78;5117145;27;20262;-91
2022/03/26 02:01:37;;;;;;;6.93;3.80;;;;;;;7.17;59.93;100095.94;5117101;27;20515;-91
2022/03/26 02:04:05;;;;;;;7.63;3.57;;;;;;;7.21;59.71;100100.19;5135099;27;20684;-90
2022/03/26 02:06:32;;;;;;;11.07;3.40;;;;;;;7.23;60.31;100110.59;5134152;27;20178;-91
2022/03/26 02:09:02;;;;;;;8.97;4.00;;;;;;;7.11;58.39;100121.28;5135631;27;20277;-91
2022/03/26 02:11:32;;;;;;;8.17;3.93;;;;;;;6.84;56.12;100125.34;5116887;27;20199;-91
2022/03/26 02:13:58;;;;;;;10.83;4.73;;;;;;;6.67;55.11;100125.72;5135476;27;20517;-90
2022/03/26 02:16:25;;;;;;;7.57;4.23;;;;;;;6.66;55.02;100125.75;5134828;27;20620;-91
2022/03/26 02:18:52;;;;;;;8.77;3.90;;;;;;;6.69;54.86;100125.69;5135373;27;20224;-90
2022/03/26 02:21:19;;;;;;;9.93;3.53;;;;;;;6.80;54.54;100132.41;5134096;27;20185;-91
2022/03/26 02:23:46;;;;;;;12.00;4.30;;;;;;;6.78;54.00;100134.19;5134721;27;20631;-90
2022/03/26 02:26:16;;;;;;;9.90;4.70;;;;;;;6.74;54.41;100136.88;5134749;27;20340;-92
2022/03/26 02:28:44;;;;;;;10.17;3.93;;;;;;;6.69;54.02;100136.97;5133807;27;20192;-90
2022/03/26 02:31:13;;;;;;;7.73;3.57;;;;;;;6.77;53.76;100127.25;5134778;27;20513;-90
2022/03/26 02:33:40;;;;;;;10.87;5.90;;;;;;;6.76;52.63;100138.56;5116419;27;20183;-90
2022/03/26 02:36:06;;;;;;;6.60;2.77;;;;;;;6.65;53.40;100137.94;5134563;27;20175;-90
2022/03/26 02:38:32;;;;;;;18.60;3.77;;;;;;;6.42;53.68;100144.50;5134812;27;20191;-90
2022/03/26 02:40:57;;;;;;;7.90;3.63;;;;;;;6.33;54.10;100145.53;5134493;27;20167;-90
2022/03/26 02:43:23;;;;;;;5.33;3.57;;;;;;;6.37;54.03;100144.56;5134694;27;20305;-91
2022/03/26 02:45:48;;;;;;;22.70;3.27;;;;;;;6.24;54.61;100156.09;5134713;27;20185;-90
2022/03/26 02:48:14;;;;;;;13.10;4.77;;;;;;;6.24;54.96;100148.28;5133451;27;20614;-91
2022/03/26 02:50:41;;;;;;;10.27;4.73;;;;;;;6.26;55.25;100161.31;5133377;27;20189;-90
2022/03/26 02:53:07;;;;;;;7.10;3.77;;;;;;;6.13;55.44;100158.06;5133277;27;20667;-91
2022/03/26 02:55:32;;;;;;;7.17;3.63;;;;;;;5.96;56.79;100154.91;5134317;27;20185;-91
2022/03/26 02:57:58;;;;;;;7.73;3.87;;;;;;;6.06;55.98;100151.25;5116234;27;20614;-91
2022/03/26 03:00:23;;;;;;;16.27;5.27;;;;;;;6.14;55.90;100162.38;5134257;27;20173;-90
2022/03/26 03:02:49;;;;;;;6.50;3.43;;;;;;;6.06;56.36;100161.66;5133241;27;20182;-91
2022/03/26 03:05:14;;;;;;;8.07;3.73;;;;;;;6.03;56.88;100151.28;5134140;28;20632;-91
2022/03/26 03:07:40;;;;;;;9.40;3.60;;;;;;;6.02;56.54;100155.66;5133966;28;20190;-91
2022/03/26 03:10:06;;;;;;;7.03;4.07;;;;;;;6.04;56.62;100164.31;5134153;28;20289;-91
2022/03/26 03:12:32;;;;;;;9.73;3.30;;;;;;;6.01;56.64;100166.09;5134385;28;20187;-91
2022/03/26 03:14:58;;;;;;;7.40;3.00;;;;;;;5.94;56.43;100172.28;5134510;28;20202;-90
2022/03/26 03:17:23;;;;;;;8.53;3.77;;;;;;;5.87;56.57;100163.72;5134285;28;20191;-92
2022/03/26 03:19:49;;;;;;;11.17;4.27;;;;;;;5.74;56.97;100176.94;5117488;27;20243;-91
2022/03/26 03:22:15;;;;;;;12.80;5.73;;;;;;;5.55;58.32;100174.63;5120490;27;20181;-91
2022/03/26 03:24:40;;;;;;;6.87;3.07;;;;;;;5.61;58.61;100175.44;5138251;27;20194;-91
2022/03/26 03:27:06;;;;;;;28.40;5.33;;;;;;;5.71;58.41;100172.66;5138433;27;20171;-91
2022/03/26 03:29:32;;;;;;;11.23;5.63;;;;;;;5.72;58.59;100178.69;5137161;27;20178;-91
2022/03/26 03:31:58;;;;;;;13.33;6.43;;;;;;;5.70;58.60;100173.53;5138262;27;20237;-91
2022/03/26 03:34:23;;;;;;;15.03;5.00;;;;;;;5.70;58.44;100168.31;5138083;27;20205;-91
2022/03/26 03:36:49;;;;;;;10.20;4.57;;;;;;;5.53;59.46;100185.94;5137094;27;20186;-92
2022/03/26 03:39:14;;;;;;;7.93;4.20;;;;;;;5.50;59.51;100188.59;5136990;27;20536;-91
2022/03/26 03:41:40;;;;;;;9.73;4.00;;;;;;;5.51;59.42;100188.56;5137913;27;20631;-91
2022/03/26 03:44:07;;;;;;;13.63;3.93;;;;;;;5.49;59.01;100185.13;5119713;27;20177;-91
2022/03/26 03:46:33;;;;;;;11.23;4.33;;;;;;;5.55;59.04;100185.00;5137784;27;20187;-91
2022/03/26 03:49:00;;;;;;;9.20;3.77;;;;;;;5.62;58.49;100190.13;5119621;27;20219;-91
2022/03/26 03:51:25;;;;;;;10.17;3.93;;;;;;;5.68;58.25;100190.03;5102524;27;20183;-91
2022/03/26 03:53:51;;;;;;;9.67;4.40;;;;;;;5.73;57.94;100196.03;5136700;27;20185;-86
2022/03/26 03:56:17;;;;;;;11.40;3.30;;;;;;;5.65;58.05;100192.69;5136919;27;20225;-86
2022/03/26 03:58:42;;;;;;;10.17;4.47;;;;;;;5.61;58.32;100196.25;5137474;27;20175;-86
2022/03/26 04:01:08;;;;;;;12.60;4.73;;;;;;;5.47;58.27;100197.31;5137522;27;20173;-86
2022/03/26 04:03:33;;;;;;;11.57;3.63;;;;;;;5.41;57.86;100205.19;5137439;27;20698;-86
2022/03/26 04:05:59;;;;;;;7.47;3.30;;;;;;;5.35;57.62;100218.28;5119210;27;20179;-86
2022/03/26 04:08:25;;;;;;;6.33;3.53;;;;;;;5.44;57.28;100207.75;5137222;27;20183;-86
2022/03/26 04:10:50;;;;;;;9.77;4.67;;;;;;;5.62;56.05;100218.75;5137553;27;20203;-86
2022/03/26 04:13:16;;;;;;;14.13;3.93;;;;;;;5.69;56.08;100205.63;5137152;27;20237;-86
2022/03/26 04:15:41;;;;;;;6.43;2.77;;;;;;;5.72;55.88;100207.31;5136232;27;20660;-86
2022/03/26 04:18:07;;;;;;;7.07;4.13;;;;;;;5.65;56.27;100208.28;5137987;27;20214;-86
2022/03/26 04:20:34;;;;;;;9.47;4.63;;;;;;;5.61;56.22;100206.63;5136120;27;20270;-86
2022/03/26 04:22:59;;;;;;;8.80;3.77;;;;;;;5.54;56.51;100213.66;5137300;27;20180;-86
2022/03/26 04:25:25;;;;;;;8.37;3.80;;;;;;;5.50;56.56;100218.03;5136111;27;20184;-86
2022/03/26 04:27:51;;;;;;;5.63;3.33;;;;;;;5.42;56.44;100219.06;5118869;27;20531;-86
2022/03/26 04:30:16;;;;;;;8.33;4.80;;;;;;;5.35;57.59;100217.41;5135536;27;20185;-86
2022/03/26 04:32:42;;;;;;;7.87;4.10;;;;;;;5.29;57.86;100230.50;5137059;27;20195;-86
2022/03/26 04:35:09;;;;;;;18.83;3.90;;;;;;;5.40;57.97;100226.84;5136779;27;20176;-86
2022/03/26 04:37:35;;;;;;;8.73;2.70;;;;;;;5.39;58.81;100226.91;5118729;27;20190;-86
2022/03/26 04:40:01;;;;;;;7.03;3.10;;;;;;;5.53;58.44;100222.34;5136718;27;20172;-86
2022/03/26 04:42:26;;;;;;;7.93;4.07;;;;;;;5.62;58.46;100221.34;5135700;27;20323;-86
2022/03/26 04:44:52;;;;;;;27.03;4.47;;;;;;;5.65;58.49;100229.09;5137228;27;20255;-86
2022/03/26 04:47:17;;;;;;;6.43;3.77;;;;;;;5.76;58.58;100224.59;5137092;27;20197;-87
2022/03/26 04:49:43;;;;;;;12.87;4.87;;;;;;;5.84;58.18;100225.34;5136529;27;20185;-86
2022/03/26 04:52:09;;;;;;;10.43;4.37;;;;;;;5.83;58.53;100231.41;5135412;27;20218;-87
2022/03/26 04:54:34;;;;;;;9.80;5.00;;;;;;;5.77;58.61;100236.69;5135421;27;20237;-86
2022/03/26 04:57:00;;;;;;;6.47;3.70;;;;;;;5.67;59.20;100241.19;5136675;27;20172;-86
2022/03/26 04:59:25;;;;;;;10.00;5.17;;;;;;;5.56;59.72;100249.16;5135350;27;20207;-86
2022/03/26 05:01:50;;;;;;;26.37;8.43;;;;;;;5.62;59.67;100247.34;5118289;27;20172;-86
2022/03/26 05:04:16;;;;;;;15.57;7.03;;;;;;;5.73;59.89;100251.53;5136297;27;20590;-86
2022/03/26 05:06:41;;;;;;;18.27;7.33;;;;;;;5.88;59.33;100245.25;5136260;27;20237;-86
2022/03/26 05:09:07;;;;;;;17.07;7.17;;;;;;;5.96;58.54;100241.63;5136062;27;20194;-85
2022/03/26 05:11:32;;;;;;;17.13;8.07;;;;;;;6.04;58.45;100242.38;5136340;27;20209;-86
2022/03/26 05:13:59;;;;;;;14.10;7.00;;;;;;;6.15;58.05;100250.00;5136042;27;20327;-86
2022/03/26 05:16:24;;;;;;;15.63;6.60;;;;;;;6.30;57.39;100235.84;5136059;27;20245;-86
2022/03/26 05:18:50;;;;;;;11.27;5.53;;;;;;;6.38;57.71;100236.56;5135032;27;20206;-86
2022/03/26 05:21:15;;;;;;;18.10;6.30;;;;;;;6.45;57.45;100240.78;5136210;27;20205;-86
2022/03/26 05:23:40;;;;;;;13.40;7.23;;;;;;;6.80;57.10;100235.75;5134904;27;20201;-86
2022/03/26 05:26:06;;;;;;;19.20;7.93;;;;;;;7.19;57.20;100239.28;5135888;27;20182;-86
2022/03/26 05:28:31;;;;;;;23.80;8.50;;;;;;;7.61;57.34;100240.97;5135802;27;20623;-85
2022/03/26 05:30:57;;;;;;;12.53;6.20;;;;;;;8.07;56.57;100232.03;5134713;27;20194;-85
2022/03/26 05:33:23;;;;;;;12.67;6.37;;;;;;;8.47;54.75;100227.50;5134592;27;20203;-86
2022/03/26 05:35:49;;;;;;;20.43;11.07;;;;;;;8.92;51.13;100235.84;5134670;27;20186;-86
2022/03/26 05:38:14;;;;;;;18.73;10.03;;;;;;;9.26;50.32;100232.22;5135813;27;20182;-86
2022/03/26 05:40:40;;;;;;;11.07;6.50;;;;;;;9.64;49.20;100235.44;5117436;27;20587;-86
2022/03/26 05:43:06;;;;;;;14.10;6.80;;;;;;;10.21;47.52;100224.88;5133706;27;20572;-86
2022/03/26 05:45:32;;;;;;;13.73;5.67;;;;;;;10.71;45.53;100225.72;5135485;27;20182;-86
2022/03/26 05:48:01;;;;;;;14.83;7.20;;;;;;;11.14;44.89;100223.22;5135404;27;20273;-86
2022/03/26 05:50:29;;;;;;;10.20;4.40;;;;;;;11.42;44.06;100229.16;5117506;27;20178;-87
2022/03/26 05:52:56;;;;;;;9.10;4.47;;;;;;;11.41;44.52;100232.69;5135237;27;20704;-86
2022/03/26 05:55:21;;;;;;;11.93;4.77;;;;;;;11.61;43.75;100226.66;5135551;27;20175;-87
2022/03/26 05:57:47;;;;;;;5.90;4.50;;;;;;;11.99;43.90;100233.03;5135528;27;20175;-86
2022/03/26 06:00:13;;;;;;;10.37;4.70;;;;;;;12.09;43.13;100234.38;5135708;27;20236;-86
2022/03/26 06:02:39;;;;;;;12.50;4.50;;;;;;;12.10;43.37;100229.06;5135083;27;20171;-87
2022/03/26 06:05:05;;;;;;;9.00;4.67;;;;;;;11.97;43.44;100238.38;5134222;27;20183;-87
2022/03/26 06:07:31;;;;;;;14.10;6.03;;;;;;;12.12;43.73;100239.50;5133673;27;20195;-88
2022/03/26 06:09:57;;;;;;;15.67;4.17;;;;;;;12.33;43.42;100234.22;5116030;28;20231;-87
2022/03/26 06:12:23;;;;;;;9.40;5.63;;;;;;;12.40;43.74;100234.78;5115947;28;20728;-88
2022/03/26 06:14:48;;;;;;;18.83;6.60;;;;;;;12.55;43.39;100239.38;5115966;28;20590;-88
2022/03/26 06:17:15;;;;;;;12.77;5.87;;;;;;;12.76;43.87;100243.72;5134560;28;20601;-88
2022/03/26 06:19:42;;;;;;;19.10;6.53;;;;;;;13.03;44.18;100248.69;5115905;28;20273;-88
2022/03/26 06:22:07;;;;;;;14.70;5.43;;;;;;;13.44;43.58;100240.63;5115842;28;20271;-88
2022/03/26 06:24:34;;;;;;;9.13;4.87;;;;;;;14.08;42.59;100248.97;5133199;28;20625;-89
2022/03/26 06:26:59;;;;;;;11.90;5.87;;;;;;;14.65;41.38;100237.28;5133853;28;20252;-87
2022/03/26 06:29:26;;;;;;;12.87;5.77;;;;;;;15.50;40.58;100239.81;5116012;28;20589;-88
2022/03/26 06:31:52;;;;;;;10.37;5.10;;;;;;;16.31;39.20;100231.59;5133981;28;20672;-88
2022/03/26 06:34:18;;;;;;;15.27;6.00;;;;;;;17.30;36.94;100237.88;5133988;28;20182;-88
2022/03/26 06:36:44;;;;;;;13.83;5.40;;;;;;;17.85;35.26;100227.28;5133960;28;20202;-88
2022/03/26 06:39:10;;;;;;;10.67;5.37;;;;;;;17.83;34.91;100231.84;5133636;28;20210;-88
2022/03/26 06:41:39;;;;;;;10.53;5.20;;;;;;;18.40;34.25;100230.66;5134197;28;20232;-87
2022/03/26 06:44:10;;;;;;;12.03;5.47;;;;;;;18.98;34.84;100234.66;5133613;28;20173;-88
2022/03/26 06:46:37;;;;;;;11.87;5.63;;;;;;;19.80;32.80;100220.81;5134156;27;20195;-88
2022/03/26 06:49:04;;;;;;;12.60;6.20;;;;;;;20.39;32.60;100224.41;5133800;28;20182;-88
2022/03/26 06:51:31;;;;;;;14.20;7.07;;;;;;;21.08;31.93;100229.63;5133477;28;20174;-88
2022/03/26 06:53:58;;;;;;;13.70;6.53;;;;;;;21.60;30.30;100223.66;5133354;27;20195;-88
2022/03/26 06:56:23;;;;;;;13.90;5.53;;;;;;;21.90;29.91;100233.72;5133458;28;20175;-89
2022/03/26 06:58:49;;;;;;;15.50;6.03;;;;;;;21.93;28.73;100233.47;5133359;28;20179;-89
2022/03/26 07:01:15;;;;;;;10.50;5.80;;;;;;;21.31;29.39;100236.66;5133334;28;20186;-88
2022/03/26 07:03:41;;;;;;;11.23;5.53;;;;;;;20.92;30.26;100237.09;5133605;28;20534;-87
2022/03/26 07:06:07;;;;;;;11.87;5.77;;;;;;;21.14;30.13;100245.16;5115191;28;20178;-87
2022/03/26 07:08:32;;;;;;;13.90;5.90;;;;;;;21.34;30.13;100247.09;5062922;28;1489398;-87
2022/03/26 07:10:59;;;;;;;12.43;5.77;;;;;;;21.28;29.32;100246.72;5133022;28;20178;-88
2022/03/26 07:13:25;;;;;;;10.60;5.73;;;;;;;21.07;29.87;100241.25;5115792;28;20243;-88
2022/03/26 07:15:51;;;;;;;13.60;6.70;;;;;;;20.35;29.77;100244.22;5134054;28;20627;-88
2022/03/26 07:18:16;;;;;;;8.37;5.57;;;;;;;20.22;30.05;100250.44;5133973;28;20171;-88
2022/03/26 07:20:42;;;;;;;9.97;5.53;;;;;;;20.49;30.35;100252.84;5134260;28;20630;-88
2022/03/26 07:23:08;;;;;;;14.20;5.63;;;;;;;20.57;29.98;100254.97;5115797;28;20173;-88
2022/03/26 07:25:34;;;;;;;12.03;6.13;;;;;;;20.41;29.88;100251.75;5133895;28;20209;-89
2022/03/26 07:28:00;;;;;;;10.60;5.10;;;;;;;20.29;30.59;100250.00;5115733;28;20327;-88
2022/03/26 07:30:26;;;;;;;11.97;4.80;;;;;;;20.46;29.45;100247.78;5116150;28;20269;-88
2022/03/26 07:32:52;;;;;;;7.17;4.53;;;;;;;20.45;29.71;100253.22;5115666;28;20195;-88
2022/03/26 07:35:18;;;;;;;10.77;4.97;;;;;;;20.42;30.06;100248.13;5133196;28;20191;-88
2022/03/26 07:37:44;;;;;;;12.27;5.23;;;;;;;20.29;30.47;100255.31;5133432;28;20221;-88
2022/03/26 07:40:10;;;;;;;13.03;4.67;;;;;;;20.26;30.31;100260.91;5133719;28;20178;-89
2022/03/26 07:42:37;;;;;;;12.00;5.03;;;;;;;20.05;28.35;100253.50;5133656;28;20187;-89
2022/03/26 07:45:05;;;;;;;10.17;5.03;;;;;;;18.97;29.52;100264.88;5133911;28;20629;-90
2022/03/26 07:47:35;;;;;;;10.20;4.80;;;;;;;19.05;30.65;100259.84;5133968;28;20174;-90
2022/03/26 07:50:03;;;;;;;16.67;4.37;;;;;;;19.10;29.67;100255.09;5134569;28;20186;-91
2022/03/26 07:52:56;;;;;;;16.03;4.93;;;;;;;19.08;29.94;100261.47;5115423;28;20199;-91
2022/03/26 07:55:22;;;;;;;13.70;5.23;;;;;;;18.97;29.62;100267.53;5108204;28;20188;-90
2022/03/26 07:57:49;;;;;;;13.03;5.43;;;;;;;18.84;29.98;100259.53;5133863;28;20613;-91
2022/03/26 08:00:15;;;;;;;8.93;4.03;;;;;;;18.45;29.54;100264.84;5115491;28;20183;-91
2022/03/26 08:02:41;;;;;;;17.87;6.10;;;;;;;18.50;29.87;100257.47;5115483;28;20650;-90
2022/03/26 08:05:07;;;;;;;12.70;4.73;;;;;;;18.69;29.77;100257.94;5115843;27;20202;-91
2022/03/26 08:07:58;;;;;;;8.47;4.90;;;;;;;18.81;29.29;100253.59;5119975;27;20894;-91
2022/03/26 08:10:24;;;;;;;12.13;4.97;;;;;;;18.81;29.94;100257.13;5119188;27;20247;-90
2022/03/26 08:12:57;;;;;;;11.00;4.60;;;;;;;18.76;29.93;100253.88;5137486;27;20229;-92
2022/03/26 08:19:06;;;;;;;9.93;4.97;;;;;;;18.94;28.66;100252.66;5054249;28;20619;-91
2022/03/26 08:21:35;;;;;;;11.07;5.10;;;;;;;18.87;28.64;100255.81;5054817;28;20183;-91
2022/03/26 08:24:02;;;;;;;9.27;4.87;;;;;;;18.87;29.47;100261.13;5105976;27;20194;-91
2022/03/26 08:26:29;;;;;;;11.50;4.97;;;;;;;18.52;28.56;100254.72;5137270;27;20163;-90
2022/03/26 08:28:59;;;;;;;14.77;5.20;;;;;;;18.59;29.06;100254.19;5135958;27;20178;-91
2022/03/26 08:31:29;;;;;;;8.33;4.47;;;;;;;18.72;28.78;100252.41;5136769;27;20167;-90
2022/03/26 08:33:55;;;;;;;8.93;4.13;;;;;;;19.02;29.13;100244.97;5135868;27;20204;-91
2022/03/26 08:36:55;;;;;;;10.37;4.60;;;;;;;19.08;29.54;100250.84;5137107;27;20632;-91
2022/03/26 08:39:20;;;;;;;14.53;4.97;;;;;;;18.90;29.82;100245.84;5119393;27;20239;-92
2022/03/26 08:45:18;;;;;;;8.73;4.40;;;;;;;19.05;29.01;100245.75;5136962;27;20179;-92
2022/03/26 08:48:19;;;;;;;11.30;4.27;;;;;;;19.25;29.74;100245.19;5136131;27;20175;-92
2022/03/26 08:54:25;;;;;;;;;;;;;;;;;;;;;
2022/03/26 09:00:33;;;;;;;10.57;5.10;;;;;;;19.17;29.81;100231.59;5053973;28;20627;-95
2022/03/26 09:02:58;;;;;;;8.13;4.23;;;;;;;18.97;29.81;100225.84;5054017;28;20162;-91
2022/03/26 09:05:24;;;;;;;13.27;5.07;;;;;;;18.75;30.13;100222.13;5101565;27;20186;-91
2022/03/26 09:16:31;;;;;;;;;;;;;;;;;;;;;
2022/03/26 09:23:29;;;;;;;9.70;4.33;;;;;;;19.58;29.62;100195.78;5021371;28;20208;-93
2022/03/26 09:26:38;;;;;;;;;;;;;;;;;;;;;
2022/03/26 09:33:33;;;;;;;9.23;4.07;;;;;;;19.45;28.75;100183.47;5047149;28;20209;-92
2022/03/26 09:39:32;;;;;;;12.73;3.30;;;;;;;19.43;28.34;100188.06;4993551;28;20299;-92
2022/03/26 09:42:31;;;;;;;9.93;3.70;;;;;;;19.26;28.18;100177.78;5036103;28;20200;-91
2022/03/26 09:53:34;;;;;;;;;;;;;;;;;;;;;
2022/03/26 09:59:41;;;;;;;9.63;3.63;;;;;;;19.97;28.36;100157.38;4907324;28;20731;-94
2022/03/26 10:02:07;;;;;;;11.10;4.40;;;;;;;19.57;27.77;100161.31;4974168;28;20176;-91
2022/03/26 10:04:50;;;;;;;8.57;3.03;;;;;;;19.79;27.97;100148.13;5101831;27;20187;-92
2022/03/26 10:08:10;;;;;;;10.33;4.70;;;;;;;19.71;29.75;100152.31;5134248;27;20580;-92
2022/03/26 10:17:41;;;;;;;7.23;3.40;;;;;;;20.45;25.63;100133.34;5099551;28;20270;-92
2022/03/26 10:20:19;;;;;;;10.20;3.90;;;;;;;19.40;26.44;100132.44;5113252;28;20183;-92
2022/03/26 10:22:48;;;;;;;7.97;3.10;;;;;;;19.12;26.96;100132.72;5096306;28;20565;-92
2022/03/26 10:25:20;;;;;;;8.27;3.93;;;;;;;19.39;27.00;100128.09;5114372;28;20238;-91
2022/03/26 10:27:51;;;;;;;8.33;3.83;;;;;;;19.45;26.33;100124.97;5114064;28;20207;-93
2022/03/26 10:32:38;;;;;;;7.27;3.50;;;;;;;18.93;27.29;100135.84;5114672;28;20192;-91
2022/03/26 10:33:27;;;;;;;6.87;3.30;;;;;;;18.50;26.50;100134.50;5113405;28;20555;-91
2022/03/26 10:36:04;;;;;;;7.17;3.70;;;;;;;19.11;26.71;100115.06;5114284;28;20164;-92
2022/03/26 10:38:37;;;;;;;7.17;3.57;;;;;;;19.55;27.21;100110.88;5114507;28;20162;-90
2022/03/26 10:41:07;;;;;;;6.47;2.77;;;;;;;19.41;26.56;100116.41;5096892;28;20617;-92
2022/03/26 10:44:32;;;;;;;;;;;;;;;;;;;;;
2022/03/26 10:46:58;;;;;;;7.10;2.87;;;;;;;20.63;24.19;100094.63;5112850;28;20171;-93
2022/03/26 10:57:07;;;;;;;;;;;;;;;;;;;;;
2022/03/26 11:00:39;;;;;;;8.37;3.27;;;;;;;20.91;23.09;100088.78;5114481;28;20188;-94
2022/03/26 11:03:50;;;;;;;5.30;2.67;;;;;;;21.04;21.92;100078.84;4954251;29;20248;-93
2022/03/26 11:30:56;;;;;;;;;;;;;;;;;;;;;
2022/03/26 12:35:12;;;;;;;7.43;2.87;;;;;;;23.56;17.60;99940.97;5036285;28;20206;-91
2022/03/26 14:31:11;;;;;;;4.90;2.60;;;;;;;23.20;17.78;99821.31;5574908;22;20709;-93
2022/03/26 15:10:06;;;;;;;7.27;2.50;;;;;;;22.05;17.91;99799.88;5658194;22;20245;-93
2022/03/26 16:46:39;;;;;;;;;;;;;;;;;;;;;
2022/03/26 16:49:49;;;;;;;14.20;6.10;;;;;;;18.01;22.73;99786.75;4861188;29;20202;-92
2022/03/26 17:10:09;;;;;;;10.63;5.53;;;;;;;17.58;23.08;99784.50;4880124;29;20347;-91
2022/03/26 17:12:34;;;;;;;15.47;5.77;;;;;;;17.44;23.15;99792.56;4907441;29;20256;-90
2022/03/26 17:15:17;;;;;;;10.47;5.37;;;;;;;17.30;23.08;99784.72;4939487;29;20211;-91
2022/03/26 17:18:07;;;;;;;15.03;4.53;;;;;;;17.14;23.23;99794.69;4955768;28;20560;-91
2022/03/26 17:21:10;;;;;;;12.13;5.00;;;;;;;17.13;23.33;99787.72;5022581;28;20203;-91
2022/03/26 17:23:38;;;;;;;13.83;4.97;;;;;;;16.86;23.46;99795.75;5036787;28;20190;-90
2022/03/26 17:26:04;;;;;;;16.67;6.80;;;;;;;16.70;23.74;99800.38;5037240;28;20185;-91
2022/03/26 17:28:59;;;;;;;17.57;8.80;;;;;;;16.68;24.47;99801.44;5055069;28;20617;-91
2022/03/26 17:32:04;;;;;;;19.27;9.03;;;;;;;16.48;24.40;99810.69;5054126;28;20251;-91
2022/03/26 17:35:06;;;;;;;22.73;7.10;;;;;;;16.51;24.33;99811.31;5053269;28;20195;-91
2022/03/26 17:37:58;;;;;;;12.20;6.40;;;;;;;16.33;24.39;99812.50;5052127;28;20223;-91
2022/03/26 17:40:26;;;;;;;13.70;5.87;;;;;;;16.23;24.47;99815.84;5037088;28;20231;-91
2022/03/26 17:43:04;;;;;;;10.03;4.70;;;;;;;16.14;25.21;99821.75;5054465;28;20173;-91
2022/03/26 17:49:33;;;;;;;13.13;6.03;;;;;;;16.08;27.30;99822.13;4993439;28;20193;-92
2022/03/26 17:58:59;;;;;;;13.67;5.33;;;;;;;16.15;28.75;99828.72;4949755;28;20190;-91
2022/03/26 18:01:27;;;;;;;10.53;4.93;;;;;;;16.06;29.29;99816.09;5027793;28;20207;-90
2022/03/26 18:03:54;;;;;;;12.73;5.63;;;;;;;15.96;30.20;99819.31;5054493;28;20520;-91
2022/03/26 18:06:37;;;;;;;;;;;;;;;;;;;;;
2022/03/26 18:09:17;;;;;;;11.83;4.73;;;;;;;15.74;31.42;99811.06;5054869;28;20565;-91
2022/03/26 18:11:48;;;;;;;9.40;4.60;;;;;;;15.64;31.63;99817.88;5054425;28;20169;-91
2022/03/26 18:14:26;;;;;;;;;;;;;;;;;;;;;
2022/03/26 18:20:58;;;;;;;;;;;;;;;;;;;;;
2022/03/26 18:30:51;;;;;;;12.53;5.33;;;;;;;15.77;32.08;99812.66;4906854;29;20215;-91
2022/03/26 18:33:46;;;;;;;10.00;5.90;;;;;;;15.57;32.39;99821.81;4900140;29;20208;-91
2022/03/26 18:36:20;;;;;;;10.10;4.93;;;;;;;15.44;32.44;99822.63;4954492;28;20250;-91
2022/03/26 18:39:01;;;;;;;21.13;6.23;;;;;;;15.44;32.83;99823.50;5036288;28;20187;-91
2022/03/26 18:45:07;;;;;;;;;;;;;;;;;;;;;
2022/03/26 18:48:11;;;;;;;12.00;4.40;;;;;;;15.38;33.20;99822.06;5053559;28;20186;-91
2022/03/26 18:50:44;;;;;;;17.90;5.80;;;;;;;15.34;33.62;99825.88;5032694;28;20265;-90
2022/03/26 18:53:18;;;;;;;15.53;5.07;;;;;;;15.36;33.64;99831.91;5033832;28;20257;-91
2022/03/26 18:56:03;;;;;;;9.13;4.43;;;;;;;15.33;33.60;99829.44;5053855;28;20162;-91
2022/03/26 18:58:43;;;;;;;11.50;5.03;;;;;;;15.28;33.67;99842.06;5033920;28;20263;-90
2022/03/26 19:01:40;;;;;;;14.00;6.30;;;;;;;15.22;34.20;99831.91;5036298;28;20215;-91
2022/03/26 19:04:38;;;;;;;19.13;5.07;;;;;;;15.15;34.30;99832.34;5052750;28;20177;-90
2022/03/26 19:07:08;;;;;;;14.33;6.13;;;;;;;15.19;34.31;99826.81;5031096;28;20530;-91
2022/03/26 19:09:39;;;;;;;16.03;5.27;;;;;;;15.16;34.28;99837.53;5036230;28;20174;-91